Terminal Aerodrome Forecast
Issued by NWS

Home | Current Version | Previous Version | Text Only | Print | Product List | Glossary On
Versions: 1 2 3 4 5 6 7 8 9 10 11 12 13
000
FTUS45 KTFX 271129
TAFLWT
TAF
KLWT 271129Z 2712/2812 VRB05KT P6SM SKC
     FM271800 28011G18KT P6SM SKC
     FM280200 VRB06KT P6SM FEW080=

USA.gov is the U.S. government's official web portal to all federal, state and local government web resources and services.